Alfred, New York
Current Conditions -  °F | °C
As of 5:26 PM on Tuesday 21 Oct 2014 (Local Time) from KELZ Reporting Station
Light Rain Light Rain  
Wind Chill: 45°   Ceiling: 2200
Heat Index: 48°   Visibility: 10mi
Dew Point: 46°   Wind: 6mph
Humidity: 93%   Direction: 330°NNW
Pressure: 29.91"   Gusts: NA
Location:  42.25°N, 77.79°W
Report Text: KELZ 212126Z AUTO 33005KT 10SM -RA FEW005 BKN022 OVC046 09/08 A2991 RMK AO2 P0005 T00890078
Loading
Personal Weather Stations






























Interactive Weather Map
Tropical Storm Tracking
New forecast layout! Learn more

10-Day Weather Forecast

Advertisements
Track Severe Weather on mobile